sensor_id;sensor_type;location;lat;lon;timestamp;pressure;altitude;pressure_sealevel;temperature;humidity
71043;BME280;58696;52.134;5.500;2022-12-07T00:03:37;101962.97;;;3.06;92.39
71043;BME280;58696;52.134;5.500;2022-12-07T00:06:06;101966.44;;;3.05;92.37
71043;BME280;58696;52.134;5.500;2022-12-07T00:08:34;101969.69;;;3.07;92.48
71043;BME280;58696;52.134;5.500;2022-12-07T00:11:06;101966.81;;;3.11;92.59
71043;BME280;58696;52.134;5.500;2022-12-07T00:13:37;101972.41;;;3.16;92.51
71043;BME280;58696;52.134;5.500;2022-12-07T00:16:07;101962.34;;;3.15;92.47
71043;BME280;58696;52.134;5.500;2022-12-07T00:18:34;101964.06;;;3.14;92.63
71043;BME280;58696;52.134;5.500;2022-12-07T00:21:06;101967.63;;;3.12;92.57
71043;BME280;58696;52.134;5.500;2022-12-07T00:23:34;101965.09;;;3.12;92.58
71043;BME280;58696;52.134;5.500;2022-12-07T00:26:15;101962.66;;;3.10;92.50
71043;BME280;58696;52.134;5.500;2022-12-07T00:28:51;101962.25;;;3.04;92.70
71043;BME280;58696;52.134;5.500;2022-12-07T00:31:20;101955.06;;;2.98;92.52
71043;BME280;58696;52.134;5.500;2022-12-07T00:33:49;101949.47;;;2.93;92.59
71043;BME280;58696;52.134;5.500;2022-12-07T00:36:19;101948.09;;;2.88;92.61
71043;BME280;58696;52.134;5.500;2022-12-07T00:38:53;101944.31;;;2.81;92.43
71043;BME280;58696;52.134;5.500;2022-12-07T00:41:24;101941.41;;;2.75;92.52
71043;BME280;58696;52.134;5.500;2022-12-07T00:43:53;101939.16;;;2.70;92.47
71043;BME280;58696;52.134;5.500;2022-12-07T00:46:20;101935.13;;;2.68;92.58
71043;BME280;58696;52.134;5.500;2022-12-07T00:48:48;101931.66;;;2.69;92.50
71043;BME280;58696;52.134;5.500;2022-12-07T00:51:18;101937.75;;;2.66;92.48
71043;BME280;58696;52.134;5.500;2022-12-07T00:53:45;101938.78;;;2.63;92.54
71043;BME280;58696;52.134;5.500;2022-12-07T00:56:16;101933.06;;;2.60;92.47
71043;BME280;58696;52.134;5.500;2022-12-07T00:58:43;101938.47;;;2.55;92.61
71043;BME280;58696;52.134;5.500;2022-12-07T01:01:12;101932.78;;;2.52;92.55
71043;BME280;58696;52.134;5.500;2022-12-07T01:03:40;101938.97;;;2.48;92.45
71043;BME280;58696;52.134;5.500;2022-12-07T01:06:07;101928.22;;;2.44;92.62
71043;BME280;58696;52.134;5.500;2022-12-07T01:08:34;101936.97;;;2.40;92.40
71043;BME280;58696;52.134;5.500;2022-12-07T01:11:07;101937.16;;;2.37;92.66
71043;BME280;58696;52.134;5.500;2022-12-07T01:13:35;101929.44;;;2.38;92.69
71043;BME280;58696;52.134;5.500;2022-12-07T01:16:04;101929.53;;;2.37;92.64
71043;BME280;58696;52.134;5.500;2022-12-07T01:18:33;101929.66;;;2.35;92.70
71043;BME280;58696;52.134;5.500;2022-12-07T01:21:06;101931.09;;;2.40;92.84
71043;BME280;58696;52.134;5.500;2022-12-07T01:23:34;101929.34;;;2.40;92.69
71043;BME280;58696;52.134;5.500;2022-12-07T01:26:05;101936.03;;;2.41;92.84
71043;BME280;58696;52.134;5.500;2022-12-07T01:28:32;101936.84;;;2.42;92.94
71043;BME280;58696;52.134;5.500;2022-12-07T01:31:03;101936.66;;;2.45;93.04
71043;BME280;58696;52.134;5.500;2022-12-07T01:33:32;101937.47;;;2.45;92.96
71043;BME280;58696;52.134;5.500;2022-12-07T01:36:05;101945.28;;;2.42;92.94
71043;BME280;58696;52.134;5.500;2022-12-07T01:38:32;101943.53;;;2.43;93.24
71043;BME280;58696;52.134;5.500;2022-12-07T01:41:00;101936.44;;;2.48;93.06
71043;BME280;58696;52.134;5.500;2022-12-07T01:43:29;101944.97;;;2.47;93.18
71043;BME280;58696;52.134;5.500;2022-12-07T01:45:56;101937.56;;;2.44;93.11
71043;BME280;58696;52.134;5.500;2022-12-07T01:48:34;101933.28;;;2.44;93.10
71043;BME280;58696;52.134;5.500;2022-12-07T01:51:07;101940.91;;;2.44;93.08
71043;BME280;58696;52.134;5.500;2022-12-07T01:53:37;101937.56;;;2.44;93.19
71043;BME280;58696;52.134;5.500;2022-12-07T01:56:05;101941.81;;;2.43;93.28
71043;BME280;58696;52.134;5.500;2022-12-07T01:58:37;101945.97;;;2.44;93.24
71043;BME280;58696;52.134;5.500;2022-12-07T02:01:04;101938.47;;;2.43;93.15
71043;BME280;58696;52.134;5.500;2022-12-07T02:03:36;101940.31;;;2.41;93.18
71043;BME280;58696;52.134;5.500;2022-12-07T02:06:06;101941.94;;;2.42;93.24
71043;BME280;58696;52.134;5.500;2022-12-07T02:08:35;101942.13;;;2.38;93.19
71043;BME280;58696;52.134;5.500;2022-12-07T02:11:03;101937.84;;;2.39;93.09
71043;BME280;58696;52.134;5.500;2022-12-07T02:13:33;101932.78;;;2.39;93.07
71043;BME280;58696;52.134;5.500;2022-12-07T02:19:50;101938.59;;;2.41;93.15
71043;BME280;58696;52.134;5.500;2022-12-07T02:30:32;101932.97;;;2.49;93.27
71043;BME280;58696;52.134;5.500;2022-12-07T02:33:14;101931.06;;;2.52;93.30
71043;BME280;58696;52.134;5.500;2022-12-07T02:36:08;101931.19;;;2.51;93.23
71043;BME280;58696;52.134;5.500;2022-12-07T02:38:43;101923.34;;;2.54;93.27
71043;BME280;58696;52.134;5.500;2022-12-07T02:43:51;101922.03;;;2.61;93.22
71043;BME280;58696;52.134;5.500;2022-12-07T02:46:26;101921.00;;;2.63;93.26
71043;BME280;58696;52.134;5.500;2022-12-07T02:48:58;101920.91;;;2.65;93.04
71043;BME280;58696;52.134;5.500;2022-12-07T02:51:27;101915.75;;;2.67;93.18
71043;BME280;58696;52.134;5.500;2022-12-07T02:53:56;101924.66;;;2.72;93.04
71043;BME280;58696;52.134;5.500;2022-12-07T03:12:28;101919.94;;;2.92;93.02
71043;BME280;58696;52.134;5.500;2022-12-07T03:15:12;101921.66;;;2.91;92.90
71043;BME280;58696;52.134;5.500;2022-12-07T03:17:46;101925.75;;;2.94;93.02
71043;BME280;58696;52.134;5.500;2022-12-07T03:20:19;101922.16;;;2.96;92.92
71043;BME280;58696;52.134;5.500;2022-12-07T03:22:47;101921.84;;;3.01;93.01
71043;BME280;58696;52.134;5.500;2022-12-07T03:25:16;101929.16;;;3.05;93.13
71043;BME280;58696;52.134;5.500;2022-12-07T03:27:53;101917.97;;;3.08;93.03
71043;BME280;58696;52.134;5.500;2022-12-07T03:30:27;101919.81;;;3.06;93.08
71043;BME280;58696;52.134;5.500;2022-12-07T03:35:34;101925.59;;;3.08;92.94
71043;BME280;58696;52.134;5.500;2022-12-07T03:38:21;101912.19;;;3.06;92.98
71043;BME280;58696;52.134;5.500;2022-12-07T03:41:01;101913.13;;;3.05;92.91
71043;BME280;58696;52.134;5.500;2022-12-07T03:43:31;101913.50;;;2.99;92.82
71043;BME280;58696;52.134;5.500;2022-12-07T03:46:12;101912.31;;;2.92;92.83
71043;BME280;58696;52.134;5.500;2022-12-07T03:48:54;101905.00;;;2.87;92.85
71043;BME280;58696;52.134;5.500;2022-12-07T03:51:30;101911.44;;;2.80;92.73
71043;BME280;58696;52.134;5.500;2022-12-07T03:54:31;101904.44;;;2.71;92.59
71043;BME280;58696;52.134;5.500;2022-12-07T03:57:01;101898.66;;;2.69;92.73
71043;BME280;58696;52.134;5.500;2022-12-07T03:59:29;101905.47;;;2.68;92.67
71043;BME280;58696;52.134;5.500;2022-12-07T04:02:01;101909.81;;;2.66;92.65
71043;BME280;58696;52.134;5.500;2022-12-07T04:04:32;101912.34;;;2.66;92.62
71043;BME280;58696;52.134;5.500;2022-12-07T04:06:59;101909.75;;;2.68;92.58
71043;BME280;58696;52.134;5.500;2022-12-07T04:09:29;101905.25;;;2.71;92.68
71043;BME280;58696;52.134;5.500;2022-12-07T04:11:56;101901.72;;;2.74;92.60
71043;BME280;58696;52.134;5.500;2022-12-07T04:14:23;101895.50;;;2.78;92.76
71043;BME280;58696;52.134;5.500;2022-12-07T04:16:55;101896.09;;;2.81;92.86
71043;BME280;58696;52.134;5.500;2022-12-07T04:19:28;101895.78;;;2.86;92.94
71043;BME280;58696;52.134;5.500;2022-12-07T04:21:56;101891.50;;;2.86;92.88
71043;BME280;58696;52.134;5.500;2022-12-07T04:24:24;101903.19;;;2.89;92.91
71043;BME280;58696;52.134;5.500;2022-12-07T04:26:51;101897.50;;;2.85;92.74
71043;BME280;58696;52.134;5.500;2022-12-07T04:29:19;101893.34;;;2.84;92.74
71043;BME280;58696;52.134;5.500;2022-12-07T04:31:46;101892.63;;;2.82;92.76
71043;BME280;58696;52.134;5.500;2022-12-07T04:34:16;101892.25;;;2.76;92.64
71043;BME280;58696;52.134;5.500;2022-12-07T04:36:45;101894.22;;;2.72;92.53
71043;BME280;58696;52.134;5.500;2022-12-07T04:39:21;101896.13;;;2.69;92.59
71043;BME280;58696;52.134;5.500;2022-12-07T04:41:49;101887.91;;;2.65;92.68
71043;BME280;58696;52.134;5.500;2022-12-07T04:44:16;101890.66;;;2.62;92.55
71043;BME280;58696;52.134;5.500;2022-12-07T04:46:43;101886.41;;;2.62;92.70
71043;BME280;58696;52.134;5.500;2022-12-07T04:49:11;101888.72;;;2.66;92.65
71043;BME280;58696;52.134;5.500;2022-12-07T04:51:38;101890.56;;;2.63;92.79
71043;BME280;58696;52.134;5.500;2022-12-07T04:54:05;101894.00;;;2.62;92.81
71043;BME280;58696;52.134;5.500;2022-12-07T04:56:32;101888.81;;;2.64;92.64
71043;BME280;58696;52.134;5.500;2022-12-07T04:59:01;101892.06;;;2.66;92.84
71043;BME280;58696;52.134;5.500;2022-12-07T05:01:28;101892.66;;;2.70;92.83
71043;BME280;58696;52.134;5.500;2022-12-07T05:03:55;101886.19;;;2.66;92.77
71043;BME280;58696;52.134;5.500;2022-12-07T05:06:22;101885.38;;;2.65;92.87
71043;BME280;58696;52.134;5.500;2022-12-07T05:08:49;101882.75;;;2.67;92.86
71043;BME280;58696;52.134;5.500;2022-12-07T05:11:16;101876.25;;;2.62;92.87
71043;BME280;58696;52.134;5.500;2022-12-07T05:14:03;101878.91;;;2.61;92.87
71043;BME280;58696;52.134;5.500;2022-12-07T05:16:31;101877.38;;;2.58;92.92
71043;BME280;58696;52.134;5.500;2022-12-07T05:18:58;101873.31;;;2.56;92.91
71043;BME280;58696;52.134;5.500;2022-12-07T05:21:25;101873.50;;;2.53;92.98
71043;BME280;58696;52.134;5.500;2022-12-07T05:23:51;101873.00;;;2.48;92.92
71043;BME280;58696;52.134;5.500;2022-12-07T05:26:18;101880.13;;;2.43;92.89
71043;BME280;58696;52.134;5.500;2022-12-07T05:28:45;101882.16;;;2.37;92.99
71043;BME280;58696;52.134;5.500;2022-12-07T05:31:15;101875.88;;;2.30;92.74
71043;BME280;58696;52.134;5.500;2022-12-07T05:33:42;101873.44;;;2.29;92.70
71043;BME280;58696;52.134;5.500;2022-12-07T05:36:09;101883.69;;;2.27;92.85
71043;BME280;58696;52.134;5.500;2022-12-07T05:38:40;101877.09;;;2.25;92.66
71043;BME280;58696;52.134;5.500;2022-12-07T05:41:13;101879.94;;;2.20;92.64
71043;BME280;58696;52.134;5.500;2022-12-07T05:44:02;101881.03;;;2.16;92.86
71043;BME280;58696;52.134;5.500;2022-12-07T05:46:29;101876.09;;;2.15;92.68
71043;BME280;58696;52.134;5.500;2022-12-07T05:48:55;101876.28;;;2.11;92.73
71043;BME280;58696;52.134;5.500;2022-12-07T05:51:23;101884.09;;;2.08;92.74
71043;BME280;58696;52.134;5.500;2022-12-07T05:53:50;101879.72;;;2.10;92.76
71043;BME280;58696;52.134;5.500;2022-12-07T05:56:19;101878.91;;;2.10;92.72
71043;BME280;58696;52.134;5.500;2022-12-07T05:58:49;101883.78;;;2.13;92.86
71043;BME280;58696;52.134;5.500;2022-12-07T06:01:34;101887.03;;;2.15;92.80
71043;BME280;58696;52.134;5.500;2022-12-07T06:04:01;101879.13;;;2.20;92.90
71043;BME280;58696;52.134;5.500;2022-12-07T06:06:27;101875.66;;;2.21;92.95
71043;BME280;58696;52.134;5.500;2022-12-07T06:08:54;101872.94;;;2.24;92.97
71043;BME280;58696;52.134;5.500;2022-12-07T06:11:21;101877.91;;;2.25;93.04
71043;BME280;58696;52.134;5.500;2022-12-07T06:14:08;101882.78;;;2.28;92.89
71043;BME280;58696;52.134;5.500;2022-12-07T06:16:40;101877.50;;;2.31;92.96
71043;BME280;58696;52.134;5.500;2022-12-07T06:19:07;101884.19;;;2.32;92.96
71043;BME280;58696;52.134;5.500;2022-12-07T06:21:34;101884.19;;;2.32;92.88
71043;BME280;58696;52.134;5.500;2022-12-07T06:24:01;101880.34;;;2.27;92.84
71043;BME280;58696;52.134;5.500;2022-12-07T06:26:29;101887.03;;;2.28;92.82
71043;BME280;58696;52.134;5.500;2022-12-07T06:29:01;101880.03;;;2.31;92.80
71043;BME280;58696;52.134;5.500;2022-12-07T06:31:28;101881.75;;;2.31;92.83
71043;BME280;58696;52.134;5.500;2022-12-07T06:34:02;101881.75;;;2.31;92.80
71043;BME280;58696;52.134;5.500;2022-12-07T06:36:30;101886.03;;;2.30;92.70
71043;BME280;58696;52.134;5.500;2022-12-07T06:38:57;101892.09;;;2.28;92.71
71043;BME280;58696;52.134;5.500;2022-12-07T06:41:24;101883.69;;;2.27;92.73
71043;BME280;58696;52.134;5.500;2022-12-07T06:43:50;101888.56;;;2.30;92.72
71043;BME280;58696;52.134;5.500;2022-12-07T06:46:21;101887.44;;;2.34;92.71
71043;BME280;58696;52.134;5.500;2022-12-07T06:48:51;101885.59;;;2.36;92.36
71043;BME280;58696;52.134;5.500;2022-12-07T06:51:18;101886.31;;;2.38;92.45
71043;BME280;58696;52.134;5.500;2022-12-07T06:53:46;101884.19;;;2.45;92.78
71043;BME280;58696;52.134;5.500;2022-12-07T06:56:13;101884.78;;;2.49;92.69
71043;BME280;58696;52.134;5.500;2022-12-07T06:58:40;101888.25;;;2.48;92.34
71043;BME280;58696;52.134;5.500;2022-12-07T07:01:15;101887.63;;;2.44;92.71
71043;BME280;58696;52.134;5.500;2022-12-07T07:03:43;101885.41;;;2.40;92.70
71043;BME280;58696;52.134;5.500;2022-12-07T07:06:11;101890.88;;;2.33;92.52
71043;BME280;58696;52.134;5.500;2022-12-07T07:08:39;101886.13;;;2.29;92.60
71043;BME280;58696;52.134;5.500;2022-12-07T07:11:09;101888.16;;;2.24;92.66
71043;BME280;58696;52.134;5.500;2022-12-07T07:13:37;101890.06;;;2.20;92.61
71043;BME280;58696;52.134;5.500;2022-12-07T07:16:05;101889.47;;;2.17;92.64
71043;BME280;58696;52.134;5.500;2022-12-07T07:18:33;101890.50;;;2.14;92.64
71043;BME280;58696;52.134;5.500;2022-12-07T07:21:01;101895.75;;;2.11;92.77
71043;BME280;58696;52.134;5.500;2022-12-07T07:23:29;101898.50;;;2.08;92.45
71043;BME280;58696;52.134;5.500;2022-12-07T07:25:57;101897.88;;;2.04;92.71
71043;BME280;58696;52.134;5.500;2022-12-07T07:28:23;101887.84;;;2.03;92.74
71043;BME280;58696;52.134;5.500;2022-12-07T07:30:50;101892.09;;;2.02;92.67
71043;BME280;58696;52.134;5.500;2022-12-07T07:33:17;101890.50;;;2.01;92.70
71043;BME280;58696;52.134;5.500;2022-12-07T07:35:44;101885.78;;;1.95;92.77
71043;BME280;58696;52.134;5.500;2022-12-07T07:38:13;101888.31;;;1.95;92.82
71043;BME280;58696;52.134;5.500;2022-12-07T07:40:40;101888.44;;;1.94;92.83
71043;BME280;58696;52.134;5.500;2022-12-07T07:43:06;101885.19;;;1.92;92.68
71043;BME280;58696;52.134;5.500;2022-12-07T07:45:34;101888.84;;;1.88;92.80
71043;BME280;58696;52.134;5.500;2022-12-07T07:48:03;101893.81;;;1.89;93.01
71043;BME280;58696;52.134;5.500;2022-12-07T07:50:30;101889.25;;;1.94;92.86
71043;BME280;58696;52.134;5.500;2022-12-07T07:52:57;101890.06;;;1.95;92.87
71043;BME280;58696;52.134;5.500;2022-12-07T07:55:26;101889.88;;;1.98;92.87
71043;BME280;58696;52.134;5.500;2022-12-07T07:57:53;101894.34;;;2.07;92.82
71043;BME280;58696;52.134;5.500;2022-12-07T08:00:21;101893.63;;;2.18;92.66
71043;BME280;58696;52.134;5.500;2022-12-07T08:02:48;101893.75;;;2.29;92.46
71043;BME280;58696;52.134;5.500;2022-12-07T08:05:16;101899.00;;;2.38;92.53
71043;BME280;58696;52.134;5.500;2022-12-07T08:07:43;101900.41;;;2.43;92.27
71043;BME280;58696;52.134;5.500;2022-12-07T08:10:11;101910.56;;;2.43;92.34
71043;BME280;58696;52.134;5.500;2022-12-07T08:12:40;101903.56;;;2.46;92.34
71043;BME280;58696;52.134;5.500;2022-12-07T08:15:30;101909.34;;;2.48;92.36
71043;BME280;58696;52.134;5.500;2022-12-07T08:17:58;101904.06;;;2.51;92.37
71043;BME280;58696;52.134;5.500;2022-12-07T08:20:31;101912.28;;;2.55;92.33
71043;BME280;58696;52.134;5.500;2022-12-07T08:22:59;101915.53;;;2.57;92.23
71043;BME280;58696;52.134;5.500;2022-12-07T08:25:26;101928.81;;;2.60;92.27
71043;BME280;58696;52.134;5.500;2022-12-07T08:27:56;101923.34;;;2.67;92.03
71043;BME280;58696;52.134;5.500;2022-12-07T08:30:23;101912.56;;;2.76;92.29
71043;BME280;58696;52.134;5.500;2022-12-07T08:32:49;101909.50;;;2.83;92.32
71043;BME280;58696;52.134;5.500;2022-12-07T08:35:16;101909.47;;;2.96;92.26
71043;BME280;58696;52.134;5.500;2022-12-07T08:37:43;101911.16;;;3.08;92.22
71043;BME280;58696;52.134;5.500;2022-12-07T08:40:12;101905.69;;;3.26;92.19
71043;BME280;58696;52.134;5.500;2022-12-07T08:42:42;101901.31;;;3.52;92.19
71043;BME280;58696;52.134;5.500;2022-12-07T08:45:12;101899.22;;;5.15;91.55
71043;BME280;58696;52.134;5.500;2022-12-07T08:47:41;101904.44;;;6.20;88.08
71043;BME280;58696;52.134;5.500;2022-12-07T08:50:09;101902.66;;;5.58;86.55
71043;BME280;58696;52.134;5.500;2022-12-07T08:52:39;101906.00;;;5.37;86.45
71043;BME280;58696;52.134;5.500;2022-12-07T08:55:10;101905.44;;;4.90;86.37
71043;BME280;58696;52.134;5.500;2022-12-07T08:57:38;101900.25;;;4.58;87.17
71043;BME280;58696;52.134;5.500;2022-12-07T09:00:07;101899.78;;;4.42;87.38
71043;BME280;58696;52.134;5.500;2022-12-07T09:02:38;101902.06;;;4.22;87.45
71043;BME280;58696;52.134;5.500;2022-12-07T09:05:06;101900.00;;;4.16;87.43
71043;BME280;58696;52.134;5.500;2022-12-07T09:07:46;101896.97;;;4.11;87.74
71043;BME280;58696;52.134;5.500;2022-12-07T09:10:15;101902.88;;;4.12;87.94
71043;BME280;58696;52.134;5.500;2022-12-07T09:12:42;101906.75;;;4.62;88.06
71043;BME280;58696;52.134;5.500;2022-12-07T09:15:09;101903.63;;;5.77;86.59
71043;BME280;58696;52.134;5.500;2022-12-07T09:17:36;101909.13;;;5.94;85.32
71043;BME280;58696;52.134;5.500;2022-12-07T09:20:08;101908.75;;;5.98;84.15
71043;BME280;58696;52.134;5.500;2022-12-07T09:22:37;101907.50;;;6.44;84.07
71043;BME280;58696;52.134;5.500;2022-12-07T09:25:05;101912.16;;;7.29;81.97
71043;BME280;58696;52.134;5.500;2022-12-07T09:27:34;101910.22;;;7.89;79.69
71043;BME280;58696;52.134;5.500;2022-12-07T09:30:02;101914.03;;;8.32;77.54
71043;BME280;58696;52.134;5.500;2022-12-07T09:32:32;101910.34;;;9.17;75.62
71043;BME280;58696;52.134;5.500;2022-12-07T09:34:59;101911.03;;;10.33;70.67
71043;BME280;58696;52.134;5.500;2022-12-07T09:37:26;101900.22;;;9.52;69.95
71043;BME280;58696;52.134;5.500;2022-12-07T09:39:52;101912.63;;;8.48;72.52
71043;BME280;58696;52.134;5.500;2022-12-07T09:42:29;101912.53;;;7.73;74.58
71043;BME280;58696;52.134;5.500;2022-12-07T09:44:58;101910.25;;;7.22;75.95
71043;BME280;58696;52.134;5.500;2022-12-07T09:47:26;101907.59;;;6.64;77.80
71043;BME280;58696;52.134;5.500;2022-12-07T09:50:00;101901.06;;;6.19;78.93
71043;BME280;58696;52.134;5.500;2022-12-07T09:52:30;101902.81;;;5.98;80.25
71043;BME280;58696;52.134;5.500;2022-12-07T09:55:10;101897.88;;;5.85;80.93
71043;BME280;58696;52.134;5.500;2022-12-07T09:57:36;101905.81;;;5.82;81.64
71043;BME280;58696;52.134;5.500;2022-12-07T10:00:13;101900.56;;;7.16;80.06
71043;BME280;58696;52.134;5.500;2022-12-07T10:02:48;101887.25;;;7.51;77.55
71043;BME280;58696;52.134;5.500;2022-12-07T10:05:23;101892.84;;;6.87;78.33
71043;BME280;58696;52.134;5.500;2022-12-07T10:07:51;101888.31;;;6.50;79.08
71043;BME280;58696;52.134;5.500;2022-12-07T10:10:27;101887.63;;;6.17;79.97
71043;BME280;58696;52.134;5.500;2022-12-07T10:13:11;101887.56;;;6.07;80.32
71043;BME280;58696;52.134;5.500;2022-12-07T10:15:49;101880.16;;;5.84;80.72
71043;BME280;58696;52.134;5.500;2022-12-07T10:18:40;101880.97;;;6.26;81.21
71043;BME280;58696;52.134;5.500;2022-12-07T10:23:52;101879.69;;;6.51;79.42
71043;BME280;58696;52.134;5.500;2022-12-07T10:26:40;101882.50;;;6.98;79.05
71043;BME280;58696;52.134;5.500;2022-12-07T10:29:15;101872.00;;;7.59;79.02
71043;BME280;58696;52.134;5.500;2022-12-07T10:31:43;101862.25;;;8.29;75.86
71043;BME280;58696;52.134;5.500;2022-12-07T10:34:24;101865.91;;;7.89;75.48
71043;BME280;58696;52.134;5.500;2022-12-07T10:36:53;101864.22;;;7.51;76.13
71043;BME280;58696;52.134;5.500;2022-12-07T10:39:21;101862.47;;;7.03;76.86
71043;BME280;58696;52.134;5.500;2022-12-07T10:42:02;101865.69;;;7.05;77.33
71043;BME280;58696;52.134;5.500;2022-12-07T10:44:31;101858.03;;;7.05;77.56
71043;BME280;58696;52.134;5.500;2022-12-07T10:47:18;101854.88;;;7.79;77.17
71043;BME280;58696;52.134;5.500;2022-12-07T10:50:28;101850.00;;;8.60;74.62
71043;BME280;58696;52.134;5.500;2022-12-07T10:59:20;101845.00;;;9.99;69.93
71043;BME280;58696;52.134;5.500;2022-12-07T11:01:59;101846.78;;;9.47;69.50
71043;BME280;58696;52.134;5.500;2022-12-07T11:13:15;101841.50;;;9.74;72.44
71043;BME280;58696;52.134;5.500;2022-12-07T11:24:19;101830.84;;;7.99;73.54
71043;BME280;58696;52.134;5.500;2022-12-07T11:30:03;101829.66;;;7.08;75.78
71043;BME280;58696;52.134;5.500;2022-12-07T11:32:45;101818.19;;;6.73;76.19
71043;BME280;58696;52.134;5.500;2022-12-07T11:38:10;101812.56;;;6.29;77.76
71043;BME280;58696;52.134;5.500;2022-12-07T11:40:38;101824.38;;;6.21;78.23
71043;BME280;58696;52.134;5.500;2022-12-07T11:43:15;101815.44;;;6.46;78.73
71043;BME280;58696;52.134;5.500;2022-12-07T11:45:47;101818.06;;;6.84;78.66
71043;BME280;58696;52.134;5.500;2022-12-07T11:50:50;101806.78;;;7.26;77.94
71043;BME280;58696;52.134;5.500;2022-12-07T11:53:25;101803.38;;;7.45;76.63
71043;BME280;58696;52.134;5.500;2022-12-07T11:56:02;101797.44;;;7.54;76.99
71043;BME280;58696;52.134;5.500;2022-12-07T12:03:47;101788.16;;;7.53;76.62
71043;BME280;58696;52.134;5.500;2022-12-07T12:06:19;101789.50;;;7.47;76.57
71043;BME280;58696;52.134;5.500;2022-12-07T12:21:12;101772.75;;;7.16;77.19
71043;BME280;58696;52.134;5.500;2022-12-07T12:23:56;101771.22;;;7.32;76.95
71043;BME280;58696;52.134;5.500;2022-12-07T12:26:27;101769.91;;;7.19;76.73
71043;BME280;58696;52.134;5.500;2022-12-07T12:29:17;101776.50;;;7.11;76.40
71043;BME280;58696;52.134;5.500;2022-12-07T12:32:05;101773.16;;;7.01;77.22
71043;BME280;58696;52.134;5.500;2022-12-07T12:34:57;101764.00;;;6.99;76.85
71043;BME280;58696;52.134;5.500;2022-12-07T12:42:46;101765.63;;;7.00;77.58
71043;BME280;58696;52.134;5.500;2022-12-07T12:45:27;101752.97;;;7.18;76.74
71043;BME280;58696;52.134;5.500;2022-12-07T12:47:57;101748.22;;;7.23;76.80
71043;BME280;58696;52.134;5.500;2022-12-07T12:50:32;101747.66;;;7.38;76.57
71043;BME280;58696;52.134;5.500;2022-12-07T12:56:02;101730.56;;;7.39;75.71
71043;BME280;58696;52.134;5.500;2022-12-07T12:58:38;101740.53;;;7.32;76.49
71043;BME280;58696;52.134;5.500;2022-12-07T13:03:59;101743.72;;;7.07;76.55
71043;BME280;58696;52.134;5.500;2022-12-07T13:08:54;101743.31;;;6.82;77.45
71043;BME280;58696;52.134;5.500;2022-12-07T13:11:29;101748.41;;;6.53;77.64
71043;BME280;58696;52.134;5.500;2022-12-07T13:17:03;101728.88;;;5.83;79.42
71043;BME280;58696;52.134;5.500;2022-12-07T13:24:56;101725.50;;;5.52;80.48
71043;BME280;58696;52.134;5.500;2022-12-07T13:27:25;101728.56;;;5.46;80.93
71043;BME280;58696;52.134;5.500;2022-12-07T13:29:56;101719.09;;;5.37;81.50
71043;BME280;58696;52.134;5.500;2022-12-07T13:32:27;101723.78;;;5.32;81.83
71043;BME280;58696;52.134;5.500;2022-12-07T13:34:56;101712.47;;;5.24;81.78
71043;BME280;58696;52.134;5.500;2022-12-07T13:37:32;101707.31;;;5.15;81.47
71043;BME280;58696;52.134;5.500;2022-12-07T13:40:18;101713.34;;;5.14;81.79
71043;BME280;58696;52.134;5.500;2022-12-07T13:42:57;101709.72;;;5.16;81.43
71043;BME280;58696;52.134;5.500;2022-12-07T13:45:29;101699.53;;;5.16;81.55
71043;BME280;58696;52.134;5.500;2022-12-07T13:48:31;101695.72;;;5.22;81.49
71043;BME280;58696;52.134;5.500;2022-12-07T13:51:01;101699.16;;;5.21;81.80
71043;BME280;58696;52.134;5.500;2022-12-07T13:53:28;101695.88;;;5.30;81.93
71043;BME280;58696;52.134;5.500;2022-12-07T13:56:00;101696.31;;;5.35;81.72
71043;BME280;58696;52.134;5.500;2022-12-07T13:58:30;101696.44;;;5.34;81.46
71043;BME280;58696;52.134;5.500;2022-12-07T14:00:59;101688.00;;;5.33;81.59
71043;BME280;58696;52.134;5.500;2022-12-07T14:03:30;101692.66;;;5.28;81.55
71043;BME280;58696;52.134;5.500;2022-12-07T14:06:17;101685.53;;;5.22;81.59
71043;BME280;58696;52.134;5.500;2022-12-07T14:08:48;101691.66;;;5.19;81.85
71043;BME280;58696;52.134;5.500;2022-12-07T14:11:28;101688.16;;;5.20;81.87
71043;BME280;58696;52.134;5.500;2022-12-07T14:13:58;101682.03;;;5.23;82.13
71043;BME280;58696;52.134;5.500;2022-12-07T14:16:32;101686.19;;;5.24;81.91
71043;BME280;58696;52.134;5.500;2022-12-07T14:19:05;101686.47;;;5.31;82.26
71043;BME280;58696;52.134;5.500;2022-12-07T14:21:33;101681.53;;;5.29;81.99
71043;BME280;58696;52.134;5.500;2022-12-07T14:24:18;101674.41;;;5.33;82.23
71043;BME280;58696;52.134;5.500;2022-12-07T14:26:48;101666.66;;;5.34;82.26
71043;BME280;58696;52.134;5.500;2022-12-07T14:31:49;101660.63;;;5.35;82.52
71043;BME280;58696;52.134;5.500;2022-12-07T14:34:16;101668.41;;;5.34;82.36
71043;BME280;58696;52.134;5.500;2022-12-07T14:36:42;101661.81;;;5.31;82.42
71043;BME280;58696;52.134;5.500;2022-12-07T14:39:09;101662.75;;;5.30;82.14
71043;BME280;58696;52.134;5.500;2022-12-07T14:41:39;101665.44;;;5.28;82.54
71043;BME280;58696;52.134;5.500;2022-12-07T14:44:23;101654.53;;;5.26;82.66
71043;BME280;58696;52.134;5.500;2022-12-07T14:46:54;101651.31;;;5.24;82.50
71043;BME280;58696;52.134;5.500;2022-12-07T14:49:41;101657.34;;;5.23;82.48
71043;BME280;58696;52.134;5.500;2022-12-07T14:52:15;101653.31;;;5.21;82.78
71043;BME280;58696;52.134;5.500;2022-12-07T14:55:04;101649.28;;;5.18;82.82
71043;BME280;58696;52.134;5.500;2022-12-07T14:57:37;101652.44;;;5.11;82.81
71043;BME280;58696;52.134;5.500;2022-12-07T15:00:05;101650.81;;;5.10;83.12
71043;BME280;58696;52.134;5.500;2022-12-07T15:02:33;101649.22;;;5.09;83.44
71043;BME280;58696;52.134;5.500;2022-12-07T15:05:00;101651.34;;;5.04;83.65
71043;BME280;58696;52.134;5.500;2022-12-07T15:07:27;101655.75;;;5.01;83.64
71043;BME280;58696;52.134;5.500;2022-12-07T15:09:57;101656.69;;;5.00;84.00
71043;BME280;58696;52.134;5.500;2022-12-07T15:12:23;101656.00;;;4.98;84.24
71043;BME280;58696;52.134;5.500;2022-12-07T15:14:51;101642.59;;;4.96;84.26